Etusivu
METAR-TAF:

METAR-TAF

Lentoasemat :

John H. Batten Airport

Racine, Wisconsin, Yhdysvallat

Leveyspiiri: 42-45-31N, Pituuspiiri: 087-49-04W, korkeus merenpinnasta: 205 m

Tämänhetkinen sää

Tämä raportti tehtiin 39 minuuttia sitten, kello 19.53 UTC
Tuuli 15 kn pohjoisesta puuskistuen 23 kn:hen
Lämpötila -2°C
Kosteus 69%
Ilmanpaine 1018 hPa
Näkyvyys: 16.1 km
Hajanaisia pilviä 2500 ft:n korkeudessa
Pilvistä 3100 ft:n korkeudessa

METAR: KRAC 261953Z AUTO 01015G23KT 10SM SCT025 OVC031 M02/M07 A3006 RMK AO2 PK WND 01029/1901 SLP185 T10171072

Aika: 14:32 (20:32 UTC)


TAF: puuttuu

Säähavainnot ja -ennusteet yli 4000 lentoasemalta (METAR- ja TAF-raportit).

Käytössä olevat sääasemat on merkitty karttaan keltaisilla ja punaisilla pisteillä.

Aseta hiiri pisteen päälle nähdäksesi sääaseman nimen.

Klikkaa sitten nähdäksesi säähavainnot ja -ennusteet.

Kartan vaihtaminen: klikkaa mustalla rastilla varustettuja vihreitä pisteitä, niin voit zoomata sisään; viivalla varustettua vihreää pistettä, niin voit zoomata ulos tai vihreitä nuolia, niin pääset viereisille kartoille.


METAR-TAF: